Time;durP1;ratioP1;P1;durP2;ratioP2;P2;SDS_P1;SDS_P2;PMS_P1;PMS_P2;Temp;Humidity;BMP_temperature;BMP_pressure;BME280_temperature;BME280_humidity;BME280_pressure;Samples;Min_cycle;Max_cycle;Signal;HPM_P1;HPM_P2
2024/03/26 00:01:24;;;;;;;9.50;4.60;;;24.30;71.10;;;;;;5073680;28;20175;-74
2024/03/26 00:03:51;;;;;;;8.90;4.70;;;24.30;70.80;;;;;;5074126;28;20193;-74
2024/03/26 00:06:19;;;;;;;11.50;4.70;;;24.40;70.50;;;;;;5074188;28;20232;-74
2024/03/26 00:08:46;;;;;;;7.20;3.73;;;24.40;70.50;;;;;;5074231;28;20195;-74
2024/03/26 00:11:13;;;;;;;13.47;4.07;;;24.70;70.20;;;;;;5074294;28;20248;-73
2024/03/26 00:13:41;;;;;;;8.23;4.40;;;24.80;69.10;;;;;;5069196;28;20187;-72
2024/03/26 00:16:08;;;;;;;9.07;4.57;;;24.90;69.80;;;;;;5075060;28;20187;-71
2024/03/26 00:18:35;;;;;;;12.40;4.30;;;25.10;69.50;;;;;;5074703;28;20183;-73
2024/03/26 00:21:04;;;;;;;9.37;4.50;;;25.30;69.00;;;;;;5077979;28;20324;-73
2024/03/26 00:23:31;;;;;;;11.00;4.57;;;25.20;67.10;;;;;;5073900;28;20172;-72
2024/03/26 00:25:59;;;;;;;7.20;4.70;;;25.30;67.00;;;;;;5070926;28;20252;-73
2024/03/26 00:28:26;;;;;;;10.10;4.10;;;24.80;68.00;;;;;;5075906;28;20547;-73
2024/03/26 00:30:53;;;;;;;11.97;4.30;;;25.00;68.70;;;;;;5075948;28;20274;-72
2024/03/26 00:33:20;;;;;;;11.43;4.50;;;25.20;68.20;;;;;;5078234;28;20182;-73
2024/03/26 00:35:48;;;;;;;14.70;4.50;;;25.30;67.10;;;;;;5075526;28;20187;-75
2024/03/26 00:38:15;;;;;;;7.87;3.80;;;25.50;67.80;;;;;;5077890;28;20222;-72
2024/03/26 00:40:43;;;;;;;9.47;4.07;;;25.70;67.70;;;;;;5064389;28;20205;-72
2024/03/26 00:43:10;;;;;;;6.87;3.77;;;26.00;66.70;;;;;;5074173;28;20260;-70
2024/03/26 00:45:38;;;;;;;9.20;4.47;;;25.90;65.90;;;;;;5074020;28;20175;-72
2024/03/26 00:48:05;;;;;;;9.50;4.00;;;25.80;65.60;;;;;;5064738;28;20171;-70
2024/03/26 00:50:35;;;;;;;9.20;3.57;;;25.80;67.20;;;;;;5080349;28;20553;-70
2024/03/26 00:53:03;;;;;;;8.00;4.17;;;26.00;65.90;;;;;;5078602;28;20175;-71
2024/03/26 00:55:30;;;;;;;9.33;4.00;;;25.90;65.50;;;;;;5074722;28;20706;-73
2024/03/26 00:57:57;;;;;;;9.37;4.40;;;25.80;66.60;;;;;;5092411;28;20538;-71
2024/03/26 01:00:24;;;;;;;6.73;4.00;;;26.10;65.70;;;;;;5077377;28;20183;-72
2024/03/26 01:02:52;;;;;;;8.67;4.00;;;26.40;65.40;;;;;;5073068;28;20180;-71
2024/03/26 01:05:19;;;;;;;10.87;3.90;;;26.50;64.70;;;;;;5075482;28;20206;-72
2024/03/26 01:07:46;;;;;;;10.90;3.70;;;26.60;64.20;;;;;;5058137;28;20197;-70
2024/03/26 01:10:15;;;;;;;12.33;3.90;;;26.70;63.80;;;;;;5081508;28;20234;-71
2024/03/26 01:12:42;;;;;;;12.13;4.53;;;26.70;64.30;;;;;;5079349;28;20187;-72
2024/03/26 01:15:10;;;;;;;7.03;3.70;;;26.60;63.00;;;;;;5077572;28;20195;-71
2024/03/26 01:17:37;;;;;;;7.23;3.50;;;26.80;63.70;;;;;;5077336;28;20198;-75
2024/03/26 01:20:05;;;;;;;12.00;3.97;;;27.10;63.20;;;;;;5076370;28;20190;-72
2024/03/26 01:22:32;;;;;;;7.93;3.30;;;27.10;62.50;;;;;;5077360;28;20209;-72
2024/03/26 01:24:59;;;;;;;10.90;4.00;;;27.20;62.00;;;;;;5072088;28;20261;-73
2024/03/26 01:27:27;;;;;;;7.27;3.77;;;27.00;62.40;;;;;;5074801;28;20602;-71
2024/03/26 01:29:54;;;;;;;7.73;3.67;;;27.30;63.20;;;;;;5076268;28;20217;-71
2024/03/26 01:32:22;;;;;;;8.00;4.40;;;27.40;61.80;;;;;;5085378;28;20186;-73
2024/03/26 01:34:52;;;;;;;8.50;3.73;;;27.40;62.40;;;;;;5078623;28;20274;-72
2024/03/26 01:37:20;;;;;;;9.67;3.80;;;27.60;61.30;;;;;;5083955;28;20183;-73
2024/03/26 01:39:47;;;;;;;8.40;3.70;;;27.60;60.70;;;;;;5076406;28;20758;-70
2024/03/26 01:42:14;;;;;;;8.43;4.03;;;27.70;61.30;;;;;;5085738;28;20664;-69
2024/03/26 01:44:42;;;;;;;9.50;3.83;;;27.00;61.90;;;;;;5079455;28;20225;-71
2024/03/26 01:47:09;;;;;;;6.10;4.20;;;27.30;62.50;;;;;;5085611;28;20178;-71
2024/03/26 01:49:36;;;;;;;7.40;3.70;;;27.60;61.50;;;;;;5076103;28;20185;-71
2024/03/26 01:52:05;;;;;;;9.40;3.70;;;28.20;60.10;;;;;;5084019;28;20235;-73
2024/03/26 01:54:32;;;;;;;8.63;3.30;;;28.40;59.80;;;;;;5077324;28;20172;-73
2024/03/26 01:57:00;;;;;;;5.90;3.50;;;28.70;59.10;;;;;;5081606;28;20174;-71
2024/03/26 01:59:27;;;;;;;13.47;4.00;;;28.80;58.00;;;;;;5077927;28;20187;-74
2024/03/26 02:01:55;;;;;;;7.70;3.63;;;28.90;58.00;;;;;;5076309;28;20296;-72
2024/03/26 02:04:22;;;;;;;9.93;3.77;;;28.40;58.10;;;;;;5080614;28;20174;-71
2024/03/26 02:06:49;;;;;;;8.07;3.63;;;28.80;59.00;;;;;;5080137;28;21522;-75
2024/03/26 02:09:17;;;;;;;10.00;3.93;;;28.90;57.40;;;;;;5082418;28;20182;-74
2024/03/26 02:11:44;;;;;;;6.50;3.93;;;29.20;57.40;;;;;;5079821;28;20219;-70
2024/03/26 02:14:12;;;;;;;10.27;3.73;;;29.40;55.80;;;;;;5089601;28;20265;-74
2024/03/26 02:16:40;;;;;;;8.40;3.93;;;29.60;55.60;;;;;;5084514;28;20179;-75
2024/03/26 02:19:09;;;;;;;14.57;4.00;;;29.70;55.00;;;;;;5101938;28;20220;-73
2024/03/26 02:21:36;;;;;;;11.83;3.83;;;29.90;55.30;;;;;;5083431;28;20171;-75
2024/03/26 02:24:04;;;;;;;11.40;3.90;;;29.80;54.50;;;;;;5084907;28;20531;-72
2024/03/26 02:26:31;;;;;;;8.10;4.47;;;29.40;56.30;;;;;;5082604;28;20171;-73
2024/03/26 02:28:59;;;;;;;11.57;4.03;;;29.30;55.70;;;;;;5085788;28;20214;-72
2024/03/26 02:31:26;;;;;;;7.97;4.03;;;29.00;56.70;;;;;;5077868;28;20225;-76
2024/03/26 02:33:54;;;;;;;11.70;3.90;;;29.10;55.60;;;;;;5088863;28;20353;-76
2024/03/26 02:36:21;;;;;;;8.93;3.60;;;28.80;56.60;;;;;;5072976;28;20195;-74
2024/03/26 02:38:48;;;;;;;11.23;4.23;;;28.80;55.90;;;;;;5064943;28;20580;-75
2024/03/26 02:41:15;;;;;;;8.83;4.10;;;28.50;57.10;;;;;;5081428;28;20198;-74
2024/03/26 02:43:43;;;;;;;12.23;3.97;;;28.60;56.90;;;;;;5079864;28;20228;-74
2024/03/26 02:46:11;;;;;;;10.63;3.93;;;28.60;56.30;;;;;;5081680;28;20653;-70
2024/03/26 02:48:44;;;;;;;7.20;3.80;;;28.90;55.90;;;;;;5081520;28;20628;-72
2024/03/26 02:51:12;;;;;;;9.17;3.50;;;29.00;56.70;;;;;;5079717;28;20218;-73
2024/03/26 02:53:39;;;;;;;9.47;4.63;;;28.80;56.20;;;;;;5084604;28;20231;-73
2024/03/26 02:56:07;;;;;;;8.47;3.70;;;28.80;56.50;;;;;;5079684;28;20182;-75
2024/03/26 02:58:34;;;;;;;11.20;4.07;;;28.90;56.80;;;;;;5077625;28;20259;-71
2024/03/26 03:01:12;;;;;;;9.83;3.23;;;29.10;55.90;;;;;;5078041;28;20180;-75
2024/03/26 03:03:41;;;;;;;9.53;3.80;;;28.70;57.40;;;;;;5077842;28;20701;-71
2024/03/26 03:06:12;;;;;;;6.60;3.60;;;28.90;56.40;;;;;;5080444;28;20166;-73
2024/03/26 03:08:39;;;;;;;8.60;3.90;;;28.90;56.80;;;;;;5078321;28;20536;-74
2024/03/26 03:11:07;;;;;;;7.33;3.77;;;29.40;55.50;;;;;;5081419;28;20231;-73
2024/03/26 03:13:34;;;;;;;12.43;3.50;;;29.30;56.30;;;;;;5082092;28;20251;-70
2024/03/26 03:16:02;;;;;;;7.70;3.10;;;29.70;55.70;;;;;;5067948;28;20176;-74
2024/03/26 03:18:30;;;;;;;8.83;3.00;;;29.80;54.50;;;;;;5078888;28;20178;-74
2024/03/26 03:20:57;;;;;;;7.35;3.40;;;30.30;53.30;;;;;;5084821;28;20183;-74
2024/03/26 03:23:26;;;;;;;5.93;3.45;;;30.50;53.80;;;;;;5079960;28;20179;-77
2024/03/26 03:25:57;;;;;;;10.73;3.47;;;30.70;53.10;;;;;;5087120;28;20180;-74
2024/03/26 03:28:25;;;;;;;6.32;3.35;;;30.30;52.70;;;;;;5084465;28;20711;-74
2024/03/26 03:30:53;;;;;;;8.18;3.53;;;30.20;53.40;;;;;;5081678;28;20206;-74
2024/03/26 03:33:20;;;;;;;7.50;3.88;;;30.20;53.70;;;;;;5083715;28;20183;-73
2024/03/26 03:35:50;;;;;;;7.80;2.92;;;30.10;54.00;;;;;;5081860;28;20186;-76
2024/03/26 03:38:17;;;;;;;7.72;2.90;;;30.50;52.40;;;;;;5079351;28;20607;-74
2024/03/26 03:40:45;;;;;;;6.57;2.80;;;31.00;50.40;;;;;;5080963;28;20186;-75
2024/03/26 03:43:12;;;;;;;10.07;3.10;;;31.00;50.60;;;;;;5078459;28;20179;-75
2024/03/26 03:45:40;;;;;;;5.78;3.00;;;31.20;51.50;;;;;;5082319;28;20169;-75
2024/03/26 03:48:08;;;;;;;8.65;3.30;;;31.10;50.30;;;;;;5078993;28;21219;-76
2024/03/26 03:50:36;;;;;;;8.25;2.83;;;31.30;49.50;;;;;;5079980;28;20203;-72
2024/03/26 03:53:03;;;;;;;7.55;3.25;;;31.60;48.00;;;;;;5079303;28;20190;-72
2024/03/26 03:55:31;;;;;;;5.32;2.78;;;31.70;48.60;;;;;;5081322;28;20653;-71
2024/03/26 03:57:58;;;;;;;5.25;2.72;;;32.00;46.40;;;;;;5071088;28;20175;-74
2024/03/26 04:00:26;;;;;;;7.32;2.75;;;31.20;48.10;;;;;;5075089;28;20179;-75
2024/03/26 04:02:53;;;;;;;4.68;2.50;;;31.80;46.90;;;;;;5072768;28;20656;-70
2024/03/26 04:05:20;;;;;;;5.13;2.38;;;31.90;45.30;;;;;;5076887;28;20230;-73
2024/03/26 04:07:48;;;;;;;7.05;2.63;;;32.00;46.30;;;;;;5076352;28;20178;-74
2024/03/26 04:10:15;;;;;;;5.95;2.22;;;31.80;46.60;;;;;;5074875;28;20207;-72
2024/03/26 04:12:42;;;;;;;5.70;2.17;;;31.90;46.90;;;;;;5074408;28;20175;-74
2024/03/26 04:15:11;;;;;;;7.10;2.33;;;31.60;47.60;;;;;;5074391;28;20187;-77
2024/03/26 04:17:38;;;;;;;5.18;1.98;;;31.20;48.80;;;;;;5074113;28;20183;-72
2024/03/26 04:20:06;;;;;;;6.40;2.50;;;31.40;48.10;;;;;;5080240;28;20172;-73
2024/03/26 04:22:34;;;;;;;7.43;2.28;;;30.60;48.70;;;;;;5078614;28;20457;-75
2024/03/26 04:25:01;;;;;;;7.55;1.80;;;30.60;49.50;;;;;;5076150;28;20668;-70
2024/03/26 04:27:28;;;;;;;6.50;2.20;;;30.50;49.50;;;;;;5084571;28;20641;-71
2024/03/26 04:29:56;;;;;;;4.72;2.50;;;31.20;48.10;;;;;;5077036;28;20218;-70
2024/03/26 04:32:23;;;;;;;5.75;1.85;;;31.00;49.00;;;;;;5075378;28;20214;-71
2024/03/26 04:34:51;;;;;;;6.10;1.92;;;31.30;49.10;;;;;;5078415;28;20183;-73
2024/03/26 04:37:18;;;;;;;7.15;2.42;;;31.70;46.10;;;;;;5064733;28;20206;-74
2024/03/26 04:39:45;;;;;;;6.22;2.25;;;31.40;47.50;;;;;;5070039;28;20280;-71
2024/03/26 04:42:12;;;;;;;4.63;1.70;;;31.40;46.60;;;;;;5070292;28;20282;-71
2024/03/26 04:44:40;;;;;;;3.63;1.70;;;31.00;47.90;;;;;;5073881;28;20178;-72
2024/03/26 04:47:07;;;;;;;4.00;1.48;;;31.60;47.10;;;;;;5071389;28;20180;-71
2024/03/26 04:49:34;;;;;;;5.75;1.70;;;31.40;47.10;;;;;;5073840;28;20193;-70
2024/03/26 04:52:02;;;;;;;5.97;1.58;;;31.50;46.90;;;;;;5072737;28;20179;-71
2024/03/26 04:54:30;;;;;;;4.57;1.75;;;30.80;47.80;;;;;;5070235;28;20179;-72
2024/03/26 04:57:00;;;;;;;4.22;1.80;;;31.30;47.20;;;;;;5062104;28;20645;-70
2024/03/26 04:59:27;;;;;;;2.53;1.42;;;31.20;48.50;;;;;;5076014;28;20182;-70
2024/03/26 05:01:55;;;;;;;5.90;2.13;;;32.00;47.40;;;;;;5072444;28;20254;-70
2024/03/26 05:04:22;;;;;;;3.40;1.52;;;31.90;45.30;;;;;;5071924;28;20213;-74
2024/03/26 05:06:49;;;;;;;3.83;1.45;;;31.80;45.00;;;;;;5069548;28;20237;-70
2024/03/26 05:09:17;;;;;;;3.60;1.63;;;31.80;46.70;;;;;;5077941;28;20205;-69
2024/03/26 05:11:46;;;;;;;6.28;1.63;;;31.80;47.50;;;;;;5079181;28;20214;-70
2024/03/26 05:14:14;;;;;;;3.15;1.40;;;31.90;47.60;;;;;;5076362;28;20244;-72
2024/03/26 05:16:42;;;;;;;6.15;1.60;;;31.10;48.20;;;;;;5071932;28;20191;-69
2024/03/26 05:19:10;;;;;;;4.95;1.63;;;30.70;51.30;;;;;;5079644;28;20187;-75
2024/03/26 05:21:37;;;;;;;3.17;1.33;;;31.00;50.40;;;;;;5071318;28;20187;-73
2024/03/26 05:24:04;;;;;;;3.15;1.38;;;31.40;49.60;;;;;;5074463;28;20184;-74
2024/03/26 05:26:32;;;;;;;3.67;1.58;;;31.60;48.80;;;;;;5075410;28;20521;-74
2024/03/26 05:28:59;;;;;;;3.15;1.38;;;31.30;49.90;;;;;;5074654;28;20190;-73
2024/03/26 05:31:26;;;;;;;6.28;1.58;;;31.30;49.10;;;;;;5072352;28;20267;-74
2024/03/26 05:33:54;;;;;;;5.63;1.65;;;31.90;48.40;;;;;;5073906;28;20418;-75
2024/03/26 05:36:21;;;;;;;3.50;1.30;;;32.10;47.00;;;;;;5075497;28;20183;-77
2024/03/26 05:38:48;;;;;;;7.18;1.55;;;31.80;46.80;;;;;;5072458;28;20251;-75
2024/03/26 05:41:16;;;;;;;4.47;1.75;;;32.30;46.70;;;;;;5069834;28;20186;-73
2024/03/26 05:43:44;;;;;;;6.28;1.65;;;32.40;45.60;;;;;;5059142;28;20194;-73
2024/03/26 05:46:12;;;;;;;4.75;1.70;;;32.40;46.70;;;;;;5072829;28;20216;-76
2024/03/26 05:48:40;;;;;;;4.07;1.65;;;32.20;46.90;;;;;;5069451;28;20175;-76
2024/03/26 05:51:07;;;;;;;1.77;1.17;;;32.70;45.60;;;;;;5083372;28;20689;-74
2024/03/26 05:53:38;;;;;;;5.88;2.00;;;32.30;45.80;;;;;;5076068;28;20262;-72
2024/03/26 05:56:05;;;;;;;3.15;1.30;;;32.30;46.40;;;;;;5069423;28;20190;-74
2024/03/26 05:58:33;;;;;;;4.78;1.95;;;31.50;48.50;;;;;;5076332;28;20536;-76
2024/03/26 06:01:06;;;;;;;3.63;1.15;;;31.50;49.40;;;;;;5075193;28;20185;-75
2024/03/26 06:03:34;;;;;;;5.35;1.50;;;31.40;48.30;;;;;;5071680;28;20194;-74
2024/03/26 06:06:01;;;;;;;3.15;1.45;;;32.10;46.90;;;;;;5071038;28;20244;-72
2024/03/26 06:08:28;;;;;;;3.15;1.33;;;31.90;48.80;;;;;;5072584;28;20178;-71
2024/03/26 06:10:56;;;;;;;5.55;1.83;;;31.70;48.40;;;;;;5070225;28;20216;-71
2024/03/26 06:13:23;;;;;;;5.03;1.67;;;32.20;47.80;;;;;;5074015;28;20174;-71
2024/03/26 06:15:50;;;;;;;4.03;1.55;;;32.10;47.20;;;;;;5071790;28;20198;-70
2024/03/26 06:18:18;;;;;;;5.25;1.48;;;31.30;49.10;;;;;;5071617;28;20202;-72
2024/03/26 06:20:45;;;;;;;5.43;1.80;;;31.60;49.60;;;;;;5071527;28;20614;-77
2024/03/26 06:23:12;;;;;;;7.50;2.10;;;31.60;50.20;;;;;;5077398;28;20256;-70
2024/03/26 06:25:39;;;;;;;5.45;2.30;;;31.30;50.90;;;;;;5071525;28;20194;-72
2024/03/26 06:28:07;;;;;;;3.33;1.90;;;31.10;51.20;;;;;;5078099;28;20208;-70
2024/03/26 06:30:35;;;;;;;5.20;2.17;;;31.40;51.50;;;;;;5073088;28;20312;-70
2024/03/26 06:33:02;;;;;;;7.18;2.28;;;31.70;50.90;;;;;;5074565;28;20174;-71
2024/03/26 06:35:30;;;;;;;7.53;2.60;;;31.00;52.60;;;;;;5072485;28;20531;-70
2024/03/26 06:37:57;;;;;;;4.50;1.80;;;31.00;53.10;;;;;;5072687;28;20854;-71
2024/03/26 06:40:24;;;;;;;4.38;1.80;;;31.70;50.80;;;;;;5070994;28;20186;-73
2024/03/26 06:42:51;;;;;;;3.92;2.08;;;31.70;51.50;;;;;;5076504;28;20666;-70
2024/03/26 06:45:19;;;;;;;6.88;2.50;;;30.90;52.20;;;;;;5073029;28;20216;-70
2024/03/26 06:47:46;;;;;;;4.45;1.92;;;30.10;54.60;;;;;;5074049;28;20179;-69
2024/03/26 06:50:15;;;;;;;7.55;2.17;;;30.20;54.90;;;;;;5073556;28;20241;-71
2024/03/26 06:52:46;;;;;;;7.60;1.90;;;29.90;56.10;;;;;;5073357;28;20553;-71
2024/03/26 06:55:21;;;;;;;4.30;1.97;;;30.00;55.20;;;;;;5074705;28;20536;-71
2024/03/26 06:57:49;;;;;;;5.20;2.30;;;30.00;55.20;;;;;;5078491;28;20548;-70
2024/03/26 07:00:18;;;;;;;3.35;1.95;;;29.70;55.90;;;;;;5076383;28;20190;-69
2024/03/26 07:02:45;;;;;;;10.70;2.45;;;29.30;56.70;;;;;;5076459;28;20198;-72
2024/03/26 07:05:13;;;;;;;4.15;2.08;;;29.00;57.80;;;;;;5074948;28;20526;-71
2024/03/26 07:07:40;;;;;;;5.13;2.28;;;28.80;59.10;;;;;;5080790;28;20174;-73
2024/03/26 07:10:08;;;;;;;5.07;2.33;;;29.20;58.80;;;;;;5075786;28;20223;-71
2024/03/26 07:12:35;;;;;;;3.60;1.80;;;29.40;57.40;;;;;;5080205;28;20210;-71
2024/03/26 07:15:06;;;;;;;5.40;2.00;;;29.10;57.80;;;;;;5074904;28;20606;-71
2024/03/26 07:17:33;;;;;;;7.40;2.03;;;29.20;57.50;;;;;;5077595;28;20278;-72
2024/03/26 07:20:01;;;;;;;4.07;2.00;;;28.60;59.70;;;;;;5074164;28;20616;-71
2024/03/26 07:22:28;;;;;;;6.13;2.27;;;28.30;59.70;;;;;;5075812;28;20179;-73
2024/03/26 07:24:55;;;;;;;5.17;1.90;;;27.60;61.60;;;;;;5073324;28;20197;-71
2024/03/26 07:27:23;;;;;;;7.87;2.10;;;28.00;61.40;;;;;;5075643;28;20232;-71
2024/03/26 07:29:50;;;;;;;5.67;1.90;;;27.70;61.40;;;;;;5072741;28;20191;-73
2024/03/26 07:32:17;;;;;;;10.30;2.50;;;26.80;63.80;;;;;;5079925;28;20218;-70
2024/03/26 07:34:45;;;;;;;4.50;2.03;;;26.30;65.70;;;;;;5073114;28;20188;-70
2024/03/26 07:37:12;;;;;;;8.90;2.83;;;25.80;67.40;;;;;;5073741;28;20187;-71
2024/03/26 07:39:39;;;;;;;6.83;2.73;;;25.50;68.60;;;;;;5064161;28;20719;-71
2024/03/26 07:42:07;;;;;;;5.87;2.93;;;25.50;68.40;;;;;;5075600;28;20229;-71
2024/03/26 07:44:34;;;;;;;6.37;2.63;;;25.30;69.60;;;;;;5076874;28;20546;-71
2024/03/26 07:47:03;;;;;;;8.40;3.50;;;25.10;69.90;;;;;;5077514;28;20285;-70
2024/03/26 07:49:30;;;;;;;8.20;2.70;;;25.10;70.30;;;;;;5075964;28;20183;-72
2024/03/26 07:51:58;;;;;;;7.90;2.60;;;25.00;70.60;;;;;;5079123;28;20575;-71
2024/03/26 07:54:25;;;;;;;4.63;2.67;;;24.80;70.80;;;;;;5075897;28;20175;-71
2024/03/26 07:56:53;;;;;;;4.83;2.50;;;24.70;71.30;;;;;;5076393;28;20641;-70
2024/03/26 07:59:20;;;;;;;5.07;2.43;;;24.40;72.10;;;;;;5075148;28;20646;-73
2024/03/26 08:01:47;;;;;;;6.63;3.10;;;24.40;71.70;;;;;;5074859;28;20733;-72
2024/03/26 08:04:14;;;;;;;6.30;2.57;;;24.30;71.80;;;;;;5072755;28;20187;-72
2024/03/26 08:06:42;;;;;;;6.07;3.00;;;24.10;72.80;;;;;;5078698;28;20556;-70
2024/03/26 08:09:12;;;;;;;4.73;2.37;;;24.00;72.90;;;;;;5080694;28;20251;-73
2024/03/26 08:11:39;;;;;;;8.17;3.23;;;24.00;72.70;;;;;;5075998;28;20214;-72
2024/03/26 08:14:06;;;;;;;6.57;2.63;;;24.10;72.60;;;;;;5079164;28;20249;-70
2024/03/26 08:16:34;;;;;;;7.40;2.60;;;24.00;72.70;;;;;;5075742;28;20181;-70
2024/03/26 08:19:01;;;;;;;8.00;2.83;;;24.00;72.70;;;;;;5074470;28;20183;-72
2024/03/26 08:21:28;;;;;;;7.93;2.93;;;23.90;72.50;;;;;;5081313;28;20198;-71
2024/03/26 08:23:55;;;;;;;4.83;3.10;;;23.80;73.30;;;;;;5082191;28;20536;-71
2024/03/26 08:26:23;;;;;;;6.60;3.10;;;23.80;73.30;;;;;;5082280;28;20179;-72
2024/03/26 08:28:51;;;;;;;9.77;3.40;;;23.80;72.80;;;;;;5076406;28;20182;-71
2024/03/26 08:31:19;;;;;;;5.73;2.90;;;23.80;73.00;;;;;;5080637;28;20770;-73
2024/03/26 08:33:46;;;;;;;6.73;3.33;;;23.70;72.80;;;;;;5083981;28;20214;-70
2024/03/26 08:36:13;;;;;;;4.03;2.77;;;23.60;73.10;;;;;;5075494;28;20205;-70
2024/03/26 08:38:41;;;;;;;4.60;3.40;;;23.70;73.10;;;;;;5084822;28;20281;-70
2024/03/26 08:41:08;;;;;;;4.20;3.00;;;23.60;73.30;;;;;;5078652;28;20187;-71
2024/03/26 08:43:35;;;;;;;4.80;3.53;;;23.50;73.40;;;;;;5084756;28;21466;-70
2024/03/26 08:46:03;;;;;;;6.67;3.20;;;23.30;73.90;;;;;;5080379;28;20218;-71
2024/03/26 08:48:30;;;;;;;7.33;3.40;;;23.30;74.10;;;;;;5078012;28;20238;-73
2024/03/26 08:50:58;;;;;;;5.90;3.67;;;23.30;74.40;;;;;;5082254;28;20224;-71
2024/03/26 08:53:26;;;;;;;8.40;3.20;;;23.30;74.60;;;;;;5078989;28;20171;-71
2024/03/26 08:55:53;;;;;;;7.73;3.47;;;23.30;74.70;;;;;;5082780;28;20781;-71
2024/03/26 08:58:20;;;;;;;7.83;3.77;;;23.20;75.00;;;;;;5084247;28;20186;-71
2024/03/26 09:00:47;;;;;;;7.80;3.73;;;23.20;75.40;;;;;;5082425;28;20187;-71
2024/03/26 09:03:16;;;;;;;6.60;3.30;;;23.30;75.30;;;;;;5081120;28;20183;-70
2024/03/26 09:05:43;;;;;;;4.07;3.33;;;23.30;75.00;;;;;;5085590;28;20183;-73
2024/03/26 09:08:10;;;;;;;4.33;3.30;;;23.20;75.00;;;;;;5085999;28;20187;-73
2024/03/26 09:10:38;;;;;;;5.17;3.77;;;23.10;75.60;;;;;;5085555;28;20312;-73
2024/03/26 09:13:05;;;;;;;8.03;3.83;;;23.20;75.50;;;;;;5079201;28;20656;-72
2024/03/26 09:15:33;;;;;;;10.03;3.63;;;23.10;75.60;;;;;;5085210;28;20227;-72
2024/03/26 09:18:00;;;;;;;6.77;3.57;;;23.10;75.80;;;;;;5086752;28;20176;-71
2024/03/26 09:20:27;;;;;;;7.97;3.83;;;23.10;75.90;;;;;;5077731;28;20191;-72
2024/03/26 09:22:55;;;;;;;4.90;3.97;;;23.00;75.90;;;;;;5083387;28;20215;-72
2024/03/26 09:25:22;;;;;;;7.63;3.90;;;23.00;76.30;;;;;;5078163;28;20178;-72
2024/03/26 09:27:50;;;;;;;11.80;4.60;;;23.00;76.20;;;;;;5085802;28;20179;-75
2024/03/26 09:30:17;;;;;;;10.23;3.87;;;22.90;76.50;;;;;;5082834;28;20213;-72
2024/03/26 09:32:44;;;;;;;8.27;3.90;;;22.90;76.60;;;;;;5084975;28;20209;-75
2024/03/26 09:35:12;;;;;;;8.03;3.93;;;22.90;76.70;;;;;;5082033;28;20178;-72
2024/03/26 09:37:39;;;;;;;8.63;4.20;;;22.90;76.70;;;;;;5074749;28;20171;-72
2024/03/26 09:40:07;;;;;;;7.17;4.87;;;22.80;76.50;;;;;;5082074;28;20213;-72
2024/03/26 09:42:36;;;;;;;8.93;4.30;;;22.80;76.70;;;;;;5078601;28;20262;-72
2024/03/26 09:45:05;;;;;;;11.00;3.73;;;22.80;76.90;;;;;;5082821;28;20670;-73
2024/03/26 09:47:34;;;;;;;6.07;3.97;;;22.80;77.00;;;;;;5085088;28;20680;-72
2024/03/26 09:50:04;;;;;;;5.30;3.97;;;22.80;77.10;;;;;;5075938;28;20689;-72
2024/03/26 09:52:36;;;;;;;6.90;3.90;;;22.80;76.90;;;;;;5079048;28;20644;-72
2024/03/26 09:55:08;;;;;;;9.10;4.43;;;22.80;77.00;;;;;;5082130;28;20198;-73
2024/03/26 09:57:35;;;;;;;5.57;4.07;;;22.70;77.30;;;;;;5078860;28;20224;-72
2024/03/26 10:00:03;;;;;;;9.47;4.10;;;22.80;77.60;;;;;;5075134;28;20179;-72
2024/03/26 10:02:30;;;;;;;9.40;4.20;;;22.70;77.30;;;;;;5079473;28;20187;-72
2024/03/26 10:04:58;;;;;;;8.93;3.70;;;22.60;77.50;;;;;;5073468;28;20215;-72
2024/03/26 10:07:26;;;;;;;9.90;4.10;;;22.60;77.60;;;;;;5077869;28;20545;-71
2024/03/26 10:09:53;;;;;;;9.27;3.90;;;22.50;77.80;;;;;;5072193;28;20175;-71
2024/03/26 10:12:20;;;;;;;7.87;3.73;;;22.60;78.00;;;;;;5077539;28;20182;-72
2024/03/26 10:14:47;;;;;;;11.57;4.43;;;22.50;78.00;;;;;;5072715;28;20179;-72
2024/03/26 10:17:15;;;;;;;9.30;3.97;;;22.50;78.00;;;;;;5074876;28;20191;-72
2024/03/26 10:19:42;;;;;;;6.30;3.63;;;22.50;77.90;;;;;;5072373;28;20175;-72
2024/03/26 10:22:16;;;;;;;7.10;3.50;;;22.50;78.00;;;;;;5076503;28;20638;-72
2024/03/26 10:24:45;;;;;;;9.63;4.70;;;22.50;78.20;;;;;;5053037;28;20183;-73
2024/03/26 10:27:12;;;;;;;9.97;4.53;;;22.40;78.20;;;;;;5079515;28;20182;-73
2024/03/26 10:29:39;;;;;;;7.57;3.73;;;22.40;78.30;;;;;;5075574;28;20175;-72
2024/03/26 10:32:07;;;;;;;6.20;3.43;;;22.40;78.30;;;;;;5083432;28;20217;-72
2024/03/26 10:34:39;;;;;;;11.07;3.73;;;22.30;78.40;;;;;;5077258;28;20214;-72
2024/03/26 10:37:08;;;;;;;10.97;4.30;;;22.30;78.50;;;;;;5078285;28;20195;-72
2024/03/26 10:39:38;;;;;;;5.40;3.63;;;22.30;78.70;;;;;;5079109;28;20222;-72
2024/03/26 10:42:06;;;;;;;7.73;3.90;;;22.30;78.90;;;;;;5082137;28;20199;-72
2024/03/26 10:44:34;;;;;;;11.07;4.23;;;22.30;79.00;;;;;;5074601;28;20538;-72
2024/03/26 10:47:03;;;;;;;8.93;3.97;;;22.30;79.00;;;;;;5079532;28;20191;-72
2024/03/26 10:49:35;;;;;;;8.30;4.30;;;22.30;79.10;;;;;;5083529;28;20274;-76
2024/03/26 10:52:04;;;;;;;6.43;3.97;;;22.20;79.10;;;;;;5075003;28;20332;-75
2024/03/26 10:54:32;;;;;;;8.57;4.20;;;22.20;79.50;;;;;;5080824;28;20176;-75
2024/03/26 10:57:01;;;;;;;12.43;4.30;;;22.20;79.70;;;;;;5074834;28;20641;-71
2024/03/26 10:59:29;;;;;;;10.00;4.47;;;22.20;80.00;;;;;;5078769;28;20687;-70
2024/03/26 11:01:57;;;;;;;7.47;4.67;;;22.20;80.00;;;;;;5079721;28;20182;-74
2024/03/26 11:04:26;;;;;;;7.13;5.03;;;22.20;80.20;;;;;;5075838;28;20187;-72
2024/03/26 11:06:53;;;;;;;9.63;4.57;;;22.10;80.10;;;;;;5078081;28;20174;-75
2024/03/26 11:09:25;;;;;;;10.47;5.10;;;22.10;80.20;;;;;;5081923;28;20176;-75
2024/03/26 11:11:52;;;;;;;10.93;5.00;;;22.10;80.30;;;;;;5078534;28;20299;-74
2024/03/26 11:14:20;;;;;;;7.97;5.03;;;22.00;80.40;;;;;;5083434;28;20170;-75
2024/03/26 11:16:50;;;;;;;7.77;5.30;;;22.00;80.90;;;;;;5083330;28;20201;-74
2024/03/26 11:19:24;;;;;;;9.60;5.57;;;22.00;80.90;;;;;;5082546;28;20179;-75
2024/03/26 11:21:55;;;;;;;12.63;7.00;;;22.00;81.30;;;;;;5090846;28;20697;-74
2024/03/26 11:24:32;;;;;;;12.50;8.60;;;22.00;81.40;;;;;;5082781;28;20179;-75
2024/03/26 11:27:02;;;;;;;10.60;9.57;;;22.00;81.60;;;;;;5075930;28;20193;-76
2024/03/26 11:29:32;;;;;;;11.67;10.37;;;22.00;81.80;;;;;;5077962;28;20192;-76
2024/03/26 11:32:01;;;;;;;15.07;13.57;;;22.00;82.00;;;;;;5080177;28;20264;-73
2024/03/26 11:34:31;;;;;;;17.43;15.97;;;22.00;82.20;;;;;;5078689;28;20534;-71
2024/03/26 11:37:00;;;;;;;18.57;17.17;;;21.90;82.50;;;;;;5070144;28;20195;-72
2024/03/26 11:39:28;;;;;;;20.50;18.67;;;21.90;82.70;;;;;;5079755;28;20583;-71
2024/03/26 11:41:59;;;;;;;23.13;20.83;;;21.90;82.70;;;;;;5078965;28;20535;-71
2024/03/26 11:44:27;;;;;;;25.30;22.93;;;21.90;83.00;;;;;;5061075;28;20175;-72
2024/03/26 11:46:57;;;;;;;26.47;24.17;;;21.90;83.20;;;;;;5082494;28;20273;-72
2024/03/26 11:49:24;;;;;;;27.50;24.90;;;21.90;83.40;;;;;;5079362;28;20299;-73
2024/03/26 11:51:52;;;;;;;31.50;29.47;;;21.90;83.60;;;;;;5071494;28;20250;-72
2024/03/26 11:54:19;;;;;;;32.20;30.10;;;21.90;84.00;;;;;;5077510;28;20182;-71
2024/03/26 11:56:47;;;;;;;35.40;32.87;;;21.90;84.40;;;;;;5074502;28;20236;-73
2024/03/26 11:59:14;;;;;;;40.37;37.53;;;21.80;84.60;;;;;;5059091;28;20197;-73
2024/03/26 12:01:43;;;;;;;40.63;37.87;;;21.80;84.60;;;;;;5079737;28;20191;-72
2024/03/26 12:04:10;;;;;;;44.93;42.13;;;21.80;84.90;;;;;;5071502;28;20179;-72
2024/03/26 12:06:38;;;;;;;47.03;43.63;;;21.80;85.00;;;;;;5077830;28;20185;-72
2024/03/26 12:09:07;;;;;;;48.10;44.87;;;21.80;85.00;;;;;;5081378;28;20267;-73
2024/03/26 12:11:35;;;;;;;52.47;49.23;;;21.80;85.30;;;;;;5076691;28;20211;-70
2024/03/26 12:14:02;;;;;;;54.40;50.90;;;21.80;85.40;;;;;;5079480;28;20233;-71
2024/03/26 12:16:30;;;;;;;58.60;55.10;;;21.80;85.50;;;;;;5076473;28;20179;-71
2024/03/26 12:18:58;;;;;;;61.77;57.70;;;21.80;85.90;;;;;;5078887;28;20179;-73
2024/03/26 12:21:25;;;;;;;57.70;53.90;;;21.70;85.80;;;;;;5075948;28;20182;-72
2024/03/26 12:23:54;;;;;;;59.70;55.77;;;21.60;85.80;;;;;;5072079;28;20191;-71
2024/03/26 12:26:22;;;;;;;60.30;56.27;;;21.60;85.70;;;;;;5078449;28;20179;-71
2024/03/26 12:28:50;;;;;;;61.27;57.63;;;21.40;85.40;;;;;;5073387;28;20218;-71
2024/03/26 12:31:18;;;;;;;59.73;56.03;;;21.30;85.30;;;;;;5075809;28;20242;-71
2024/03/26 12:33:46;;;;;;;61.00;57.10;;;21.30;85.30;;;;;;5076595;28;20274;-71
2024/03/26 12:36:15;;;;;;;60.90;57.00;;;21.30;85.30;;;;;;5077484;28;20553;-73
2024/03/26 12:38:42;;;;;;;61.70;57.37;;;21.20;85.40;;;;;;5062113;28;20231;-71
2024/03/26 12:41:10;;;;;;;65.17;61.27;;;21.20;85.30;;;;;;5076254;28;20187;-71
2024/03/26 12:43:38;;;;;;;65.00;61.07;;;21.20;85.30;;;;;;5076422;28;20266;-71
2024/03/26 12:46:05;;;;;;;65.13;60.93;;;21.10;85.20;;;;;;5075162;28;20681;-71